Reading Regional Carl A Spaatz Field
KRDG : now visible

Airfield :











YOU CAN JOIN US ON...

 
LOGIN :

Register | Disclaimer

   EN    FR    IT 

 









Legend :    VFR   Marginal VFR   IFR   Intensive IFR   Very Intensive IFR
Visi :
Ceiling :
>= 8 km
>= 3000ft
5 to 8 km
1000 to 3000 ft
1500m to 5 km
500 to 1000 ft
800 to 1500m
200 to 500 ft
< 800m
< 200 ft
Symbols :   Thunderstorms  Fog  Heavy snow  Heavy precipitations  Wind > 20 kt






- Airport Elevation : 344 ft
- IATA code : RDG


KRDG - Reading Regional Carl A Spaatz Field

CURRENT METAR :
  • 291854Z 25008KT 10SM BKN100 BKN120 09/01 A3009 RMK AO2 SLP197 T00940006

EXPIRED METARs :
  • 291754Z 21013G19KT 10SM OVC095 08/00 A3010 RMK AO2 PRESFR SLP201 T00830000 10083 21006 58035
  • 291654Z 00000KT 9SM CLR 06/00 A3015 RMK AO2 SLP216 T00610000

TAF KRDG
Valid from the 29 at 18:00 until the 30 at 18:00 UTC


291722Z 2918/3018 22006KT P6SM OVC080
FM292200 22004KT P6SM OVC040
FM300100 VRB03KT P6SM OVC025
FM300800 VRB03KT P6SM BKN040
FM301600 22006KT P6SM BKN040
KZNY FIR / North America



MET'MAP, your aeronautical weather chart ! - Copyright ORBIFLY December 2007 - Disclaimer

ORBIFLY MET'MAP TEAM :

Programming & Development : Alexandra Zaïnal
Original concept : Baudouin d'Aumeries
Technical & hardware support : Manuel Goepfert
Assistance : Marc-Olivier Méhu




SOURCES & CREDITS :

   NOAA       Earth
Advisory